LTFE/BJV METAR and TAF weather

Enter ICAO airport designator
Station Type Date Time Source
LTFE METAR 2019/04/18 10:20 UTC NOAA

LTFE 181020Z 02012KT 350V050 CAVOK 20/M01 Q1015 NOSIG


Station Type Date Time Source
LTFE Decoded METAR 2019/04/18 10:20 UTC NOAA

Bodrum Milas Airport, Turkey (LTFE) 37-14-53N 027-40-55E
Apr 18, 2019 - 06:20 AM EDT / 2019.04.18 1020 UTC
Wind: from the NNE (020 degrees) at 14 MPH (12 KT) (direction variable):0
Visibility: greater than 7 mile(s):0
Temperature: 68 F (20 C)
Dew Point: 30 F (-1 C)
Relative Humidity: 24%
Pressure (altimeter): 29.97 in. Hg (1015 hPa)
ob: LTFE 181020Z 02012KT 350V050 CAVOK 20/M01 Q1015 NOSIG
cycle: 10

Station Type Date Time Source
LTFE TAF 2019/04/18 06:03 UTC NOAA

TAF LTFE 180440Z 1806/1906 VRB02KT CAVOK
BECMG 1809/1811 34014KT FEW035
BECMG 1815/1818 VRB02KT CAVOK

Example: see airport list